Time;durP1;ratioP1;P1;durP2;ratioP2;P2;SDS_P1;SDS_P2;PMS_P1;PMS_P2;Temp;Humidity;BMP_temperature;BMP_pressure;BME280_temperature;BME280_humidity;BME280_pressure;Samples;Min_cycle;Max_cycle;Signal;HPM_P1;HPM_P2
2021/03/20 00:00:26;;;;;;;5.13;3.27;;;5.10;65.30;;;;;;5044082;28;20025;-86
2021/03/20 00:02:53;;;;;;;3.00;2.70;;;5.10;65.20;;;;;;5047940;28;20037;-86
2021/03/20 00:05:19;;;;;;;4.00;3.23;;;5.00;65.20;;;;;;5052529;28;20053;-86
2021/03/20 00:07:45;;;;;;;3.83;3.43;;;5.00;65.00;;;;;;5056289;28;20029;-86
2021/03/20 00:10:14;;;;;;;4.87;3.53;;;4.90;65.40;;;;;;5045056;28;20029;-86
2021/03/20 00:12:42;;;;;;;4.90;3.70;;;4.90;65.00;;;;;;5049682;28;20029;-86
2021/03/20 00:15:11;;;;;;;3.93;3.50;;;4.80;65.10;;;;;;5045811;28;20712;-86
2021/03/20 00:17:36;;;;;;;4.83;4.00;;;4.70;65.30;;;;;;5047555;28;20029;-86
2021/03/20 00:20:05;;;;;;;5.00;4.00;;;4.70;65.30;;;;;;5048418;28;20468;-86
2021/03/20 00:22:31;;;;;;;6.47;4.80;;;4.70;65.40;;;;;;5046303;28;20037;-86
2021/03/20 00:24:57;;;;;;;5.60;4.67;;;4.60;65.30;;;;;;5049027;28;20394;-86
2021/03/20 00:27:23;;;;;;;6.23;5.20;;;4.60;65.30;;;;;;5042898;28;20038;-86
2021/03/20 00:29:49;;;;;;;8.00;5.30;;;4.60;65.30;;;;;;5047964;28;20437;-86
2021/03/20 00:32:15;;;;;;;5.67;4.87;;;4.60;65.30;;;;;;5060095;28;20038;-86
2021/03/20 00:34:41;;;;;;;6.37;5.10;;;4.60;65.30;;;;;;5059512;28;20063;-86
2021/03/20 00:37:07;;;;;;;6.27;5.23;;;4.60;65.30;;;;;;5049410;28;20044;-86
2021/03/20 00:39:33;;;;;;;7.53;5.70;;;4.60;65.30;;;;;;5039684;28;20033;-86
2021/03/20 00:42:00;;;;;;;7.83;6.43;;;4.60;65.30;;;;;;5046392;28;20033;-86
2021/03/20 00:44:26;;;;;;;7.20;6.23;;;4.60;65.20;;;;;;5049726;28;20028;-86
2021/03/20 00:46:52;;;;;;;9.47;6.13;;;4.60;65.20;;;;;;5038351;28;20099;-86
2021/03/20 00:49:18;;;;;;;8.27;6.47;;;4.60;65.20;;;;;;5041253;28;20025;-86
2021/03/20 00:51:43;;;;;;;7.60;6.07;;;4.50;65.10;;;;;;5044476;28;20078;-86
2021/03/20 00:54:09;;;;;;;6.77;6.03;;;4.50;65.10;;;;;;5055269;28;20107;-86
2021/03/20 00:56:35;;;;;;;8.63;6.37;;;4.50;65.20;;;;;;5045738;28;20117;-86
2021/03/20 00:59:01;;;;;;;8.03;6.47;;;4.50;65.10;;;;;;5045327;28;20116;-86
2021/03/20 01:01:26;;;;;;;8.40;6.27;;;4.50;65.20;;;;;;5039805;28;20030;-86
2021/03/20 01:03:52;;;;;;;7.80;5.90;;;4.50;65.20;;;;;;5038351;28;20970;-86
2021/03/20 01:06:22;;;;;;;7.03;6.30;;;4.40;65.10;;;;;;5035902;28;20030;-86
2021/03/20 01:08:48;;;;;;;9.80;6.70;;;4.40;65.10;;;;;;5047100;28;20033;-86
2021/03/20 01:11:15;;;;;;;7.53;6.53;;;4.40;65.30;;;;;;5048457;28;20040;-86
2021/03/20 01:13:42;;;;;;;8.00;6.80;;;4.40;65.20;;;;;;5038481;28;20068;-86
2021/03/20 01:16:09;;;;;;;8.93;7.33;;;4.40;65.30;;;;;;5044670;28;20030;-86
2021/03/20 01:18:36;;;;;;;9.67;7.73;;;4.40;65.10;;;;;;5041214;28;20029;-86
2021/03/20 01:21:03;;;;;;;10.40;7.43;;;4.40;65.20;;;;;;5043398;28;20032;-86
2021/03/20 01:23:29;;;;;;;9.53;7.17;;;4.40;65.10;;;;;;5049248;28;20380;-86
2021/03/20 01:25:55;;;;;;;10.20;7.20;;;4.40;65.10;;;;;;5040276;28;20117;-86
2021/03/20 01:28:26;;;;;;;9.17;7.27;;;4.40;65.10;;;;;;5041791;28;20459;-86
2021/03/20 01:30:52;;;;;;;9.40;7.10;;;4.40;65.10;;;;;;5049892;28;20021;-86
2021/03/20 01:33:19;;;;;;;8.77;6.90;;;4.40;65.10;;;;;;5043131;28;20065;-86
2021/03/20 01:35:44;;;;;;;9.47;7.23;;;4.40;65.10;;;;;;5048993;28;20048;-86
2021/03/20 01:38:10;;;;;;;7.80;6.70;;;4.40;65.10;;;;;;5047384;28;20065;-86
2021/03/20 01:40:58;;;;;;;9.23;7.13;;;4.40;65.00;;;;;;5045658;28;20496;-86
2021/03/20 01:43:26;;;;;;;9.67;7.53;;;4.40;64.90;;;;;;5043802;28;20029;-86
2021/03/20 01:45:52;;;;;;;10.10;7.67;;;4.40;64.80;;;;;;5036928;28;20040;-86
2021/03/20 01:48:33;;;;;;;9.70;7.57;;;4.40;64.80;;;;;;5038273;28;20461;-86
2021/03/20 01:51:05;;;;;;;10.80;8.10;;;4.40;64.80;;;;;;5039167;28;20504;-86
2021/03/20 01:53:43;;;;;;;9.20;6.90;;;4.40;64.80;;;;;;5041123;28;20476;-86
2021/03/20 01:56:16;;;;;;;11.83;7.27;;;4.40;64.90;;;;;;5044588;28;20484;-86
2021/03/20 01:58:44;;;;;;;9.13;7.23;;;4.40;64.90;;;;;;5039417;28;20064;-85
2021/03/20 02:01:14;;;;;;;9.80;7.43;;;4.40;64.90;;;;;;5047208;28;20033;-85
2021/03/20 02:03:40;;;;;;;9.17;7.80;;;4.40;64.90;;;;;;5042976;28;20026;-86
2021/03/20 02:06:07;;;;;;;11.10;8.27;;;4.40;65.50;;;;;;5045672;28;20029;-86
2021/03/20 02:08:36;;;;;;;10.27;7.77;;;4.40;64.80;;;;;;5048825;28;20048;-86
2021/03/20 02:11:15;;;;;;;11.57;8.70;;;4.30;64.80;;;;;;5039914;28;20502;-86
2021/03/20 02:13:58;;;;;;;11.57;8.97;;;4.30;64.80;;;;;;5045268;28;20037;-86
2021/03/20 02:16:34;;;;;;;12.48;8.13;;;4.30;64.80;;;;;;5040680;28;20061;-86
2021/03/20 02:19:13;;;;;;;11.20;8.87;;;4.30;64.80;;;;;;5038110;28;20039;-85
2021/03/20 02:22:00;;;;;;;10.67;8.70;;;4.30;64.80;;;;;;5042645;28;20534;-86
2021/03/20 02:24:32;;;;;;;11.47;8.17;;;4.30;64.80;;;;;;5045757;28;20679;-86
2021/03/20 02:27:32;;;;;;;11.57;9.10;;;4.30;64.80;;;;;;5047388;28;20033;-86
2021/03/20 02:30:24;;;;;;;10.73;8.20;;;4.30;64.90;;;;;;5037375;28;20284;-86
2021/03/20 02:32:59;;;;;;;11.70;8.83;;;4.20;64.70;;;;;;5045599;28;20025;-86
2021/03/20 02:35:53;;;;;;;11.97;9.03;;;4.20;64.90;;;;;;5053720;28;20090;-86
2021/03/20 02:38:37;;;;;;;14.60;10.07;;;4.30;64.90;;;;;;5053685;28;20051;-86
2021/03/20 02:41:13;;;;;;;12.67;8.90;;;4.20;64.80;;;;;;5051287;28;20087;-86
2021/03/20 02:44:14;;;;;;;11.53;9.03;;;4.20;64.90;;;;;;5050303;28;20022;-86
2021/03/20 02:47:01;;;;;;;11.23;8.87;;;4.20;64.90;;;;;;5043782;28;20025;-86
2021/03/20 02:49:45;;;;;;;14.17;9.50;;;4.20;64.90;;;;;;5041018;28;20072;-86
2021/03/20 02:52:23;;;;;;;12.33;9.37;;;4.20;64.90;;;;;;5041231;28;20025;-86
2021/03/20 02:54:55;;;;;;;15.13;10.70;;;4.20;65.00;;;;;;5046591;28;20057;-86
2021/03/20 02:57:52;;;;;;;12.97;10.17;;;4.20;65.10;;;;;;5046805;28;20030;-86
2021/03/20 03:00:49;;;;;;;11.47;9.03;;;4.20;65.10;;;;;;5041051;28;20037;-86
2021/03/20 03:03:17;;;;;;;12.60;9.83;;;4.20;65.00;;;;;;5051595;28;20036;-86
2021/03/20 03:05:51;;;;;;;13.07;10.00;;;4.20;64.90;;;;;;5049286;28;20021;-86
2021/03/20 03:08:29;;;;;;;10.53;8.40;;;4.20;64.90;;;;;;5048646;28;20025;-86
2021/03/20 03:11:06;;;;;;;13.20;9.53;;;4.20;64.60;;;;;;5053995;28;20773;-86
2021/03/20 03:13:37;;;;;;;13.70;10.80;;;4.20;64.40;;;;;;5054832;28;20021;-86
2021/03/20 03:16:18;;;;;;;13.40;10.93;;;4.20;64.40;;;;;;5049840;28;20030;-86
2021/03/20 03:18:52;;;;;;;12.70;10.67;;;4.10;64.40;;;;;;5046412;28;20025;-86
2021/03/20 03:21:19;;;;;;;14.53;10.80;;;4.00;64.50;;;;;;5043033;28;20032;-86
2021/03/20 03:23:45;;;;;;;14.63;11.00;;;4.00;64.80;;;;;;5041615;28;20030;-86
2021/03/20 03:26:26;;;;;;;14.63;10.43;;;3.90;64.80;;;;;;5065256;28;20028;-86
2021/03/20 03:28:56;;;;;;;14.30;11.40;;;3.90;64.80;;;;;;5058488;28;20474;-86
2021/03/20 03:31:32;;;;;;;17.27;12.63;;;3.90;64.80;;;;;;5041357;28;20022;-86
2021/03/20 03:34:09;;;;;;;16.70;12.87;;;3.90;64.90;;;;;;5050596;28;20044;-86
2021/03/20 03:36:51;;;;;;;17.67;12.30;;;3.90;64.80;;;;;;5046040;28;20021;-86
2021/03/20 03:39:33;;;;;;;16.53;11.83;;;3.90;64.90;;;;;;5056170;28;20365;-86
2021/03/20 03:41:59;;;;;;;18.00;13.47;;;3.90;65.00;;;;;;5053419;28;20283;-86
2021/03/20 03:44:24;;;;;;;17.27;13.13;;;3.80;64.90;;;;;;5040955;28;20030;-86
2021/03/20 03:46:52;;;;;;;19.40;13.30;;;3.80;65.00;;;;;;5046459;28;20017;-86
2021/03/20 03:49:22;;;;;;;16.13;12.93;;;3.80;65.00;;;;;;5042802;28;20026;-86
2021/03/20 03:51:48;;;;;;;17.30;13.70;;;3.70;65.30;;;;;;5049406;28;20059;-86
2021/03/20 03:54:14;;;;;;;17.90;13.43;;;3.70;65.40;;;;;;5055168;28;20048;-86
2021/03/20 03:57:00;;;;;;;15.57;12.00;;;3.70;65.40;;;;;;5040117;28;20037;-86
2021/03/20 03:59:39;;;;;;;17.67;13.30;;;3.70;65.40;;;;;;5045768;28;20037;-86
2021/03/20 04:02:11;;;;;;;15.93;12.83;;;3.70;65.30;;;;;;5046384;28;20037;-86
2021/03/20 04:04:51;;;;;;;14.60;11.73;;;3.70;65.20;;;;;;5059659;28;20021;-86
2021/03/20 04:07:50;;;;;;;14.20;10.77;;;3.70;65.20;;;;;;5042826;28;20025;-86
2021/03/20 04:10:42;;;;;;;15.77;11.57;;;3.70;65.10;;;;;;5039772;28;20034;-86
2021/03/20 04:13:36;;;;;;;15.50;12.63;;;3.70;65.00;;;;;;5034875;28;20030;-86
2021/03/20 04:16:11;;;;;;;18.60;13.90;;;3.70;65.10;;;;;;5049032;28;20028;-86
2021/03/20 04:19:20;;;;;;;19.20;14.10;;;3.70;65.10;;;;;;5049111;28;20029;-86
2021/03/20 04:21:54;;;;;;;17.93;13.30;;;3.70;65.30;;;;;;5047902;28;20029;-86
2021/03/20 04:24:22;;;;;;;19.07;13.93;;;3.60;65.00;;;;;;5053082;28;20021;-86
2021/03/20 04:27:08;;;;;;;19.63;13.53;;;3.60;65.00;;;;;;5041596;28;20439;-86
2021/03/20 04:29:47;;;;;;;18.07;11.87;;;3.60;65.10;;;;;;5048788;28;20088;-86
2021/03/20 04:32:27;;;;;;;14.77;10.47;;;3.60;65.20;;;;;;5050346;28;20396;-86
2021/03/20 04:35:22;;;;;;;14.33;11.00;;;3.60;65.30;;;;;;5055329;28;20546;-86
2021/03/20 04:37:50;;;;;;;12.37;9.03;;;3.60;65.10;;;;;;5055050;28;20056;-86
2021/03/20 04:40:40;;;;;;;12.93;9.43;;;3.60;65.10;;;;;;5049240;28;20563;-85
2021/03/20 04:43:07;;;;;;;14.47;10.40;;;3.70;64.80;;;;;;5050882;28;20052;-86
2021/03/20 04:45:58;;;;;;;13.13;10.47;;;3.70;64.60;;;;;;5040884;28;20884;-86
2021/03/20 04:48:34;;;;;;;13.37;9.83;;;3.70;64.50;;;;;;5037661;28;20033;-86
2021/03/20 04:51:03;;;;;;;12.57;9.20;;;3.70;64.60;;;;;;5045559;28;20108;-86
2021/03/20 04:53:28;;;;;;;12.47;8.10;;;3.60;64.50;;;;;;5044741;28;20029;-86
2021/03/20 04:56:03;;;;;;;12.17;9.17;;;3.60;64.50;;;;;;5051479;28;20122;-86
2021/03/20 04:58:43;;;;;;;12.13;9.47;;;3.60;64.20;;;;;;5046633;28;20036;-86
2021/03/20 05:01:23;;;;;;;13.60;9.17;;;3.60;64.30;;;;;;5037794;28;21543;-86
2021/03/20 05:04:01;;;;;;;12.20;8.97;;;3.60;64.30;;;;;;5039715;28;20025;-86
2021/03/20 05:06:28;;;;;;;11.30;8.50;;;3.50;64.30;;;;;;5054038;28;20017;-86
2021/03/20 05:09:01;;;;;;;12.70;9.17;;;3.50;64.50;;;;;;5040969;28;20032;-86
2021/03/20 05:11:44;;;;;;;15.27;9.82;;;3.50;64.50;;;;;;5047104;28;20060;-86
2021/03/20 05:14:41;;;;;;;16.85;10.55;;;3.50;64.50;;;;;;5057088;28;20060;-87
2021/03/20 05:17:11;;;;;;;13.70;10.43;;;3.60;64.50;;;;;;5041541;28;20040;-86
2021/03/20 05:19:37;;;;;;;13.37;10.27;;;3.50;64.60;;;;;;5045880;28;20028;-86
2021/03/20 05:22:04;;;;;;;13.67;9.93;;;3.50;64.60;;;;;;5056090;28;20036;-86
2021/03/20 05:24:35;;;;;;;11.97;8.67;;;3.50;64.40;;;;;;5045811;28;20108;-86
2021/03/20 05:27:03;;;;;;;14.00;9.33;;;3.50;64.70;;;;;;5045467;28;20073;-86
2021/03/20 05:29:29;;;;;;;14.50;10.30;;;3.50;64.40;;;;;;5052295;28;20089;-85
2021/03/20 05:31:56;;;;;;;13.53;10.40;;;3.50;64.40;;;;;;5046109;28;20025;-86
2021/03/20 05:34:29;;;;;;;13.43;10.80;;;3.60;64.40;;;;;;5042475;28;20072;-86
2021/03/20 05:36:55;;;;;;;14.38;10.10;;;3.60;64.00;;;;;;5041390;28;20025;-86
2021/03/20 05:39:21;;;;;;;13.80;9.97;;;3.60;63.90;;;;;;5044990;28;20037;-86
2021/03/20 05:42:07;;;;;;;13.03;9.80;;;3.60;63.80;;;;;;5052440;28;20068;-86
2021/03/20 05:44:46;;;;;;;14.53;10.67;;;3.60;63.90;;;;;;5039698;28;20017;-87
2021/03/20 05:47:33;;;;;;;13.90;9.87;;;3.60;63.80;;;;;;5046142;28;20040;-86
2021/03/20 05:50:13;;;;;;;14.63;10.53;;;3.60;63.70;;;;;;5042385;28;20029;-86
2021/03/20 05:52:50;;;;;;;12.33;8.67;;;3.60;63.80;;;;;;5039717;28;20057;-86
2021/03/20 05:55:54;;;;;;;13.20;9.50;;;3.60;63.90;;;;;;5036505;28;20480;-86
2021/03/20 05:58:51;;;;;;;15.40;10.17;;;3.60;63.90;;;;;;5041506;28;20129;-86
2021/03/20 06:01:43;;;;;;;14.90;10.13;;;3.60;63.80;;;;;;5040869;28;20045;-86
2021/03/20 06:04:19;;;;;;;12.40;9.80;;;3.60;63.80;;;;;;5042251;28;20036;-86
2021/03/20 06:07:13;;;;;;;12.13;9.93;;;3.60;63.70;;;;;;5044373;28;20025;-86
2021/03/20 06:09:54;;;;;;;44.80;25.57;;;3.60;63.80;;;;;;5049330;28;20424;-86
2021/03/20 06:12:41;;;;;;;36.90;24.20;;;3.60;63.70;;;;;;5043751;28;20667;-86
2021/03/20 06:15:07;;;;;;;31.47;20.70;;;3.60;63.50;;;;;;5040501;28;20555;-86
2021/03/20 06:18:06;;;;;;;24.10;17.57;;;3.60;63.50;;;;;;5040598;28;20047;-86
2021/03/20 06:20:36;;;;;;;19.53;14.40;;;3.60;63.50;;;;;;5045286;28;20108;-86
2021/03/20 06:23:07;;;;;;;13.43;10.37;;;3.60;63.30;;;;;;5049092;28;20025;-86
2021/03/20 06:25:55;;;;;;;17.67;10.60;;;3.60;63.20;;;;;;5047587;28;20024;-86
2021/03/20 06:28:49;;;;;;;14.70;9.87;;;3.70;63.10;;;;;;5045967;28;20054;-86
2021/03/20 06:31:27;;;;;;;11.73;8.70;;;3.60;63.20;;;;;;5042744;28;20057;-86
2021/03/20 06:34:16;;;;;;;17.00;10.57;;;3.70;63.10;;;;;;5041395;28;20057;-86
2021/03/20 06:37:16;;;;;;;13.53;8.97;;;3.70;63.00;;;;;;5043574;28;20030;-86
2021/03/20 06:40:18;;;;;;;13.07;9.20;;;3.80;63.00;;;;;;5046755;28;20456;-86
2021/03/20 06:42:45;;;;;;;13.40;9.60;;;3.90;62.90;;;;;;5043559;28;20033;-86
2021/03/20 06:45:27;;;;;;;14.27;9.73;;;3.90;62.90;;;;;;5049517;28;20026;-86
2021/03/20 06:47:57;;;;;;;11.90;9.30;;;3.90;62.70;;;;;;5044486;28;20022;-85
2021/03/20 06:50:26;;;;;;;14.63;9.77;;;4.00;62.80;;;;;;5048901;28;20036;-85
2021/03/20 06:52:59;;;;;;;12.10;8.87;;;4.00;62.60;;;;;;5041212;28;20143;-86
2021/03/20 06:55:29;;;;;;;;;;;4.10;62.40;;;;;;5051274;28;20033;-85
2021/03/20 06:57:56;;;;;;;14.40;8.00;;;4.20;62.50;;;;;;5043514;28;20360;-86
2021/03/20 07:00:21;;;;;;;12.97;9.33;;;4.30;62.30;;;;;;5030583;28;20060;-86
2021/03/20 07:03:25;;;;;;;12.40;7.83;;;4.30;62.10;;;;;;5033096;28;20026;-86
2021/03/20 07:05:54;;;;;;;;;;;4.40;62.10;;;;;;5038367;28;20033;-86
2021/03/20 07:08:40;;;;;;;12.87;8.97;;;4.40;61.90;;;;;;5044440;28;19913;-86
2021/03/20 07:11:26;;;;;;;13.30;9.70;;;4.40;61.80;;;;;;5049521;28;20102;-86
2021/03/20 07:13:56;;;;;;;14.87;9.37;;;4.50;61.70;;;;;;5042281;28;20063;-86
2021/03/20 07:16:23;;;;;;;12.37;8.50;;;4.50;61.50;;;;;;5048313;28;20083;-86
2021/03/20 07:18:59;;;;;;;11.80;8.97;;;4.50;61.60;;;;;;5043207;28;20032;-86
2021/03/20 07:21:36;;;;;;;24.63;15.87;;;4.60;61.40;;;;;;5039679;28;20567;-85
2021/03/20 07:24:04;;;;;;;28.13;17.30;;;4.60;61.30;;;;;;5045374;28;20499;-85
2021/03/20 07:26:33;;;;;;;32.30;20.17;;;4.60;61.30;;;;;;5044093;28;20921;-86
2021/03/20 07:29:02;;;;;;;20.33;15.50;;;4.60;61.20;;;;;;5048746;28;20416;-85
2021/03/20 07:31:29;;;;;;;34.30;24.17;;;4.60;61.10;;;;;;5040488;28;20025;-85
2021/03/20 07:34:13;;;;;;;16.70;11.90;;;4.60;61.10;;;;;;5040798;28;20046;-85
2021/03/20 07:36:41;;;;;;;21.13;12.67;;;4.50;61.10;;;;;;5048158;28;20107;-85
2021/03/20 07:39:12;;;;;;;17.10;11.63;;;4.60;61.20;;;;;;5048197;28;20025;-85
2021/03/20 07:41:53;;;;;;;32.60;17.43;;;4.50;61.20;;;;;;5042770;28;20828;-85
2021/03/20 07:44:20;;;;;;;44.80;21.43;;;4.50;61.00;;;;;;5043973;28;20029;-85
2021/03/20 07:46:46;;;;;;;48.40;21.93;;;4.50;61.00;;;;;;5040332;28;20025;-85
2021/03/20 07:49:22;;;;;;;26.57;16.33;;;4.50;61.00;;;;;;5044425;28;20032;-85
2021/03/20 07:52:00;;;;;;;20.73;14.70;;;4.50;60.80;;;;;;5040383;28;20021;-86
2021/03/20 07:54:37;;;;;;;18.90;13.57;;;4.60;60.70;;;;;;5045938;28;20040;-85
2021/03/20 07:57:14;;;;;;;15.57;11.77;;;4.60;60.50;;;;;;5045972;28;20047;-85
2021/03/20 07:59:53;;;;;;;12.70;10.37;;;4.70;60.50;;;;;;5044720;28;20506;-85
2021/03/20 08:02:31;;;;;;;16.33;11.17;;;4.80;60.30;;;;;;5047556;28;20022;-86
2021/03/20 08:05:07;;;;;;;12.20;9.57;;;4.80;60.00;;;;;;5047377;28;20472;-85
2021/03/20 08:07:43;;;;;;;13.00;9.63;;;4.70;60.00;;;;;;5045502;28;20021;-85
2021/03/20 08:10:20;;;;;;;11.03;8.73;;;4.80;60.00;;;;;;5049294;28;20025;-86
2021/03/20 08:13:01;;;;;;;12.60;9.20;;;4.80;59.90;;;;;;5047049;28;20764;-85
2021/03/20 08:15:39;;;;;;;11.87;9.40;;;4.80;59.80;;;;;;5049702;28;20025;-85
2021/03/20 08:18:28;;;;;;;12.43;9.90;;;4.60;59.70;;;;;;5044836;28;20064;-85
2021/03/20 08:21:15;;;;;;;19.17;11.80;;;4.80;60.20;;;;;;5038256;28;20025;-85
2021/03/20 08:23:47;;;;;;;27.80;15.33;;;5.10;60.00;;;;;;5051901;28;20029;-85
2021/03/20 08:26:33;;;;;;;58.13;25.67;;;5.50;59.60;;;;;;5052249;28;20029;-85
2021/03/20 08:29:22;;;;;;;33.10;17.67;;;5.80;59.30;;;;;;5039940;28;20109;-85
2021/03/20 08:32:13;;;;;;;13.77;10.20;;;6.20;58.70;;;;;;5048402;28;20075;-85
2021/03/20 08:34:45;;;;;;;12.10;9.10;;;6.50;58.30;;;;;;5047604;28;20068;-85
2021/03/20 08:37:20;;;;;;;13.17;9.97;;;6.80;57.90;;;;;;5046258;28;20582;-85
2021/03/20 08:39:59;;;;;;;10.53;9.10;;;6.90;57.50;;;;;;5039865;28;20037;-85
2021/03/20 08:42:56;;;;;;;17.90;13.80;;;7.10;57.10;;;;;;5040794;28;20227;-85
2021/03/20 08:45:36;;;;;;;16.37;11.70;;;7.20;56.90;;;;;;5041513;28;20237;-85
2021/03/20 08:48:34;;;;;;;14.10;9.27;;;7.50;56.70;;;;;;5036223;28;20469;-85
2021/03/20 08:51:28;;;;;;;14.03;10.13;;;7.70;56.00;;;;;;5040930;28;20115;-85
2021/03/20 08:54:29;;;;;;;16.93;9.20;;;7.80;55.50;;;;;;5041787;28;20144;-86
2021/03/20 08:57:13;;;;;;;9.23;7.53;;;8.00;55.50;;;;;;5034615;28;20431;-85
2021/03/20 08:59:51;;;;;;;10.43;8.53;;;8.10;55.00;;;;;;5047750;28;20040;-85
2021/03/20 09:02:22;;;;;;;9.63;7.37;;;8.10;54.60;;;;;;5035815;28;20480;-85
2021/03/20 09:04:52;;;;;;;11.13;7.73;;;8.30;54.60;;;;;;5043976;28;20028;-86
2021/03/20 09:07:40;;;;;;;9.13;8.13;;;8.30;54.00;;;;;;5040896;28;20043;-85
2021/03/20 09:10:13;;;;;;;10.80;7.80;;;8.30;53.50;;;;;;5047212;28;20057;-86
2021/03/20 09:12:45;;;;;;;8.73;7.25;;;8.40;53.40;;;;;;5038880;28;20021;-85
2021/03/20 09:15:20;;;;;;;;;;;8.40;53.00;;;;;;5045319;28;20729;-86
2021/03/20 09:17:46;;;;;;;9.67;7.87;;;8.30;53.50;;;;;;5046910;28;20378;-85
2021/03/20 09:20:47;;;;;;;9.63;8.63;;;8.10;53.50;;;;;;5047632;28;20159;-85
2021/03/20 09:23:26;;;;;;;9.73;7.43;;;7.90;52.90;;;;;;5034579;28;20029;-85
2021/03/20 09:25:57;;;;;;;9.47;7.60;;;7.70;53.50;;;;;;5035986;28;20018;-85
2021/03/20 09:28:29;;;;;;;9.40;7.77;;;7.30;53.40;;;;;;5038367;28;20018;-85
2021/03/20 09:30:58;;;;;;;9.82;7.68;;;7.20;54.00;;;;;;5042201;28;20085;-86
2021/03/20 09:33:27;;;;;;;10.73;7.83;;;6.70;54.20;;;;;;5036833;28;20112;-85
2021/03/20 09:36:01;;;;;;;11.47;7.90;;;6.50;54.90;;;;;;5047469;28;20041;-85
2021/03/20 09:38:36;;;;;;;10.93;8.27;;;6.40;55.70;;;;;;5042408;28;20051;-85
2021/03/20 09:41:14;;;;;;;14.23;9.20;;;6.30;56.40;;;;;;5041093;28;20028;-85
2021/03/20 09:44:02;;;;;;;12.37;8.97;;;6.30;56.40;;;;;;5038026;28;20025;-85
2021/03/20 09:46:41;;;;;;;18.80;13.77;;;6.30;56.60;;;;;;5051296;28;20525;-86
2021/03/20 09:49:06;;;;;;;11.13;8.70;;;6.40;56.80;;;;;;5048604;28;20044;-85
2021/03/20 09:51:59;;;;;;;11.97;7.40;;;6.60;56.90;;;;;;5035928;28;20033;-85
2021/03/20 09:54:41;;;;;;;10.75;7.63;;;6.90;56.80;;;;;;5044475;28;20116;-85
2021/03/20 09:57:27;;;;;;;8.70;6.07;;;7.40;56.40;;;;;;5047111;28;20483;-85
2021/03/20 09:59:53;;;;;;;5.80;5.20;;;7.60;55.80;;;;;;5046176;28;20036;-85
2021/03/20 10:02:22;;;;;;;6.17;4.10;;;7.60;55.80;;;;;;5044425;28;20029;-85
2021/03/20 10:05:30;;;;;;;3.53;3.03;;;7.60;55.80;;;;;;5041947;28;20021;-85
2021/03/20 10:07:58;;;;;;;5.13;3.47;;;7.50;55.40;;;;;;5054051;28;20024;-84
2021/03/20 10:10:44;;;;;;;5.10;3.33;;;7.30;55.60;;;;;;5051491;28;20387;-84
2021/03/20 10:13:23;;;;;;;4.60;3.80;;;7.30;55.20;;;;;;5039132;28;20033;-85
2021/03/20 10:16:01;;;;;;;4.40;3.50;;;7.40;55.50;;;;;;5043172;28;20029;-83
2021/03/20 10:18:34;;;;;;;4.13;3.00;;;7.40;55.10;;;;;;5043302;28;20017;-84
2021/03/20 10:21:06;;;;;;;3.58;2.85;;;7.50;55.30;;;;;;5039890;28;20053;-84
2021/03/20 10:23:41;;;;;;;5.43;3.87;;;7.50;54.90;;;;;;5037758;28;20052;-84
2021/03/20 10:26:31;;;;;;;7.00;3.23;;;7.60;55.10;;;;;;5048862;28;20021;-84
2021/03/20 10:29:22;;;;;;;3.87;2.50;;;7.70;54.70;;;;;;5050802;28;20017;-84
2021/03/20 10:31:52;;;;;;;3.53;2.60;;;7.70;54.50;;;;;;5039001;28;20059;-84
2021/03/20 10:34:22;;;;;;;3.67;2.63;;;7.90;54.10;;;;;;5039594;28;20048;-84
2021/03/20 10:37:02;;;;;;;3.83;2.90;;;8.00;53.90;;;;;;5039518;28;20036;-84
2021/03/20 10:39:34;;;;;;;5.17;3.57;;;8.10;53.60;;;;;;5040593;28;20032;-84
2021/03/20 10:42:22;;;;;;;5.47;3.40;;;8.10;53.40;;;;;;5042433;28;20067;-84
2021/03/20 10:44:56;;;;;;;5.00;3.83;;;8.00;53.30;;;;;;5041327;28;20033;-84
2021/03/20 10:47:32;;;;;;;5.33;3.90;;;7.70;53.40;;;;;;5041702;28;20033;-84
2021/03/20 10:50:19;;;;;;;5.73;4.80;;;7.40;53.60;;;;;;5043659;28;20029;-84
2021/03/20 10:52:45;;;;;;;6.20;4.43;;;7.20;53.90;;;;;;5046725;28;20061;-83
2021/03/20 10:55:25;;;;;;;7.30;4.50;;;7.00;54.20;;;;;;5047875;28;20439;-84
2021/03/20 10:57:55;;;;;;;10.30;4.53;;;6.80;54.30;;;;;;5041641;28;20032;-84
2021/03/20 11:00:38;;;;;;;7.00;4.03;;;6.60;54.70;;;;;;5048056;28;20096;-84
2021/03/20 11:03:28;;;;;;;8.77;5.22;;;6.40;54.80;;;;;;5045351;28;20040;-84
2021/03/20 11:05:54;;;;;;;9.00;5.17;;;6.40;55.40;;;;;;5058242;28;20037;-84
2021/03/20 11:08:20;;;;;;;7.23;4.70;;;6.40;55.50;;;;;;5045891;28;20385;-84
2021/03/20 11:11:07;;;;;;;4.83;4.17;;;6.30;55.70;;;;;;5040578;28;20052;-84
2021/03/20 11:13:44;;;;;;;6.73;5.70;;;6.30;55.60;;;;;;5046958;28;20450;-84
2021/03/20 11:16:12;;;;;;;7.60;5.73;;;6.20;56.00;;;;;;5049420;28;20432;-84
2021/03/20 11:18:44;;;;;;;8.03;5.63;;;6.10;56.20;;;;;;5041912;28;20029;-84
2021/03/20 11:21:24;;;;;;;6.65;5.57;;;6.10;56.30;;;;;;5051773;28;20021;-84
2021/03/20 11:24:05;;;;;;;8.70;5.57;;;6.10;56.20;;;;;;5039174;28;20029;-84
2021/03/20 11:26:46;;;;;;;8.00;6.80;;;6.20;56.60;;;;;;5042942;28;20040;-84
2021/03/20 11:29:27;;;;;;;6.67;5.53;;;6.20;56.50;;;;;;5041638;28;20025;-84
2021/03/20 11:32:09;;;;;;;7.67;5.40;;;6.20;56.70;;;;;;5048095;28;20040;-83
2021/03/20 11:34:42;;;;;;;6.47;5.30;;;6.40;56.60;;;;;;5045884;28;20134;-84
2021/03/20 11:37:11;;;;;;;;;;;6.60;56.60;;;;;;5051093;28;20026;-84
2021/03/20 11:39:37;;;;;;;8.23;5.93;;;6.90;56.30;;;;;;5047729;28;19905;-84
2021/03/20 11:42:08;;;;;;;8.77;6.80;;;7.20;56.20;;;;;;5043965;28;20085;-84
2021/03/20 11:44:42;;;;;;;7.80;6.13;;;7.40;55.90;;;;;;5045811;28;20021;-84
2021/03/20 11:47:26;;;;;;;7.07;5.30;;;7.60;55.50;;;;;;5060463;28;20025;-84
2021/03/20 11:49:58;;;;;;;7.70;5.37;;;7.80;55.00;;;;;;5043498;28;20073;-84
2021/03/20 11:52:46;;;;;;;7.60;5.67;;;7.90;54.70;;;;;;5058287;28;20036;-84
2021/03/20 11:55:32;;;;;;;7.37;6.03;;;7.80;54.50;;;;;;5056795;28;20040;-84
2021/03/20 11:58:07;;;;;;;6.83;5.70;;;7.80;54.30;;;;;;5055220;28;20025;-84
2021/03/20 12:00:37;;;;;;;8.70;6.83;;;7.80;54.00;;;;;;5041733;28;20814;-83
2021/03/20 12:03:09;;;;;;;7.80;5.37;;;7.80;54.10;;;;;;5046841;28;20029;-84
2021/03/20 12:05:36;;;;;;;7.55;5.95;;;7.90;53.90;;;;;;5051620;28;20017;-84
2021/03/20 12:08:23;;;;;;;7.23;5.20;;;7.90;53.50;;;;;;5048116;28;20156;-84
2021/03/20 12:11:00;;;;;;;6.67;5.40;;;7.80;53.40;;;;;;5046489;28;20810;-84
2021/03/20 12:13:49;;;;;;;6.97;4.93;;;7.90;53.90;;;;;;5054590;28;20025;-84
2021/03/20 12:16:22;;;;;;;6.20;5.30;;;8.20;53.40;;;;;;5048820;28;20120;-84
2021/03/20 12:18:48;;;;;;;6.50;5.10;;;8.20;53.00;;;;;;5047577;28;20043;-84
2021/03/20 12:21:14;;;;;;;5.53;5.03;;;8.10;52.80;;;;;;5039957;28;20083;-84
2021/03/20 12:23:57;;;;;;;6.77;5.37;;;7.90;53.30;;;;;;5049525;28;20040;-84
2021/03/20 12:26:35;;;;;;;5.93;5.17;;;7.90;53.10;;;;;;5048675;28;20048;-85
2021/03/20 12:29:15;;;;;;;7.00;5.67;;;7.70;52.80;;;;;;5053796;28;20089;-85
2021/03/20 12:31:41;;;;;;;6.80;5.93;;;7.30;52.60;;;;;;5039892;28;20025;-84
2021/03/20 12:34:07;;;;;;;7.80;6.17;;;7.20;53.30;;;;;;5044961;28;20081;-84
2021/03/20 12:36:43;;;;;;;8.37;5.57;;;7.10;53.00;;;;;;5053422;28;20373;-84
2021/03/20 12:39:21;;;;;;;6.93;6.23;;;6.80;53.20;;;;;;5043236;28;20043;-84
2021/03/20 12:41:54;;;;;;;8.33;6.23;;;6.70;53.50;;;;;;5042105;28;20032;-84
2021/03/20 12:44:22;;;;;;;;;;;6.50;54.00;;;;;;5055524;28;20032;-84
2021/03/20 12:46:59;;;;;;;4.93;4.33;;;6.40;54.60;;;;;;5049995;28;19916;-84
2021/03/20 12:49:30;;;;;;;5.70;3.77;;;6.30;54.90;;;;;;5050058;28;20095;-84
2021/03/20 12:52:17;;;;;;;4.90;3.87;;;6.50;54.90;;;;;;5042463;28;20054;-83
2021/03/20 12:54:47;;;;;;;4.57;3.50;;;6.60;54.80;;;;;;5049988;28;20029;-84
2021/03/20 12:57:28;;;;;;;4.53;3.43;;;6.60;54.50;;;;;;5042937;28;20195;-84
2021/03/20 12:59:54;;;;;;;4.03;3.50;;;6.60;54.60;;;;;;5045055;28;20036;-84
2021/03/20 13:02:21;;;;;;;4.07;3.67;;;6.50;54.70;;;;;;5045543;28;20033;-84
2021/03/20 13:04:48;;;;;;;5.80;4.40;;;6.60;54.70;;;;;;5046128;28;20479;-83
2021/03/20 13:07:15;;;;;;;5.13;4.20;;;6.60;54.50;;;;;;5050261;28;20022;-84
2021/03/20 13:09:41;;;;;;;5.33;4.77;;;6.80;54.80;;;;;;5038145;28;20515;-83
2021/03/20 13:12:09;;;;;;;7.63;4.40;;;7.10;54.70;;;;;;5046603;28;20026;-84
2021/03/20 13:14:35;;;;;;;7.60;4.03;;;7.40;54.40;;;;;;5046616;28;20105;-84
2021/03/20 13:17:02;;;;;;;7.73;4.60;;;7.60;53.70;;;;;;5046833;28;20021;-84
2021/03/20 13:19:27;;;;;;;5.33;4.73;;;7.60;53.60;;;;;;5047732;28;20021;-83
2021/03/20 13:21:53;;;;;;;7.73;5.57;;;7.60;53.40;;;;;;5044921;28;20553;-84
2021/03/20 13:24:19;;;;;;;7.40;5.30;;;7.50;53.00;;;;;;5045143;28;20641;-84
2021/03/20 13:26:45;;;;;;;6.03;5.23;;;7.50;53.00;;;;;;5041268;28;20025;-83
2021/03/20 13:29:11;;;;;;;6.83;4.63;;;7.50;52.80;;;;;;5038793;28;20048;-83
2021/03/20 13:31:36;;;;;;;7.23;5.10;;;7.30;53.00;;;;;;5045984;28;20407;-84
2021/03/20 13:34:02;;;;;;;8.20;6.03;;;7.20;52.50;;;;;;5043536;28;20488;-84